sensor_id;sensor_type;location;lat;lon;timestamp;P1;durP1;ratioP1;P2;durP2;ratioP2
60653;SDS011;46476;53.614;10.048;2022-07-29T00:02:00;1.20;;;0.60;;
60653;SDS011;46476;53.614;10.048;2022-07-29T00:04:26;3.58;;;0.95;;
60653;SDS011;46476;53.614;10.048;2022-07-29T00:06:51;2.03;;;0.85;;
60653;SDS011;46476;53.614;10.048;2022-07-29T00:09:16;2.53;;;0.85;;
60653;SDS011;46476;53.614;10.048;2022-07-29T00:11:42;1.45;;;0.90;;
60653;SDS011;46476;53.614;10.048;2022-07-29T00:14:07;1.23;;;0.75;;
60653;SDS011;46476;53.614;10.048;2022-07-29T00:16:33;1.70;;;0.77;;
60653;SDS011;46476;53.614;10.048;2022-07-29T00:18:58;1.73;;;0.80;;
60653;SDS011;46476;53.614;10.048;2022-07-29T00:21:24;2.58;;;0.80;;
60653;SDS011;46476;53.614;10.048;2022-07-29T00:23:49;0.80;;;0.70;;
60653;SDS011;46476;53.614;10.048;2022-07-29T00:26:14;1.45;;;0.80;;
60653;SDS011;46476;53.614;10.048;2022-07-29T00:28:40;1.65;;;0.80;;
60653;SDS011;46476;53.614;10.048;2022-07-29T00:31:05;1.83;;;0.70;;
60653;SDS011;46476;53.614;10.048;2022-07-29T00:33:30;1.25;;;0.70;;
60653;SDS011;46476;53.614;10.048;2022-07-29T00:35:56;1.95;;;0.70;;
60653;SDS011;46476;53.614;10.048;2022-07-29T00:38:21;1.95;;;0.75;;
60653;SDS011;46476;53.614;10.048;2022-07-29T00:40:47;1.85;;;0.73;;
60653;SDS011;46476;53.614;10.048;2022-07-29T00:43:13;2.15;;;0.88;;
60653;SDS011;46476;53.614;10.048;2022-07-29T00:45:39;1.52;;;0.73;;
60653;SDS011;46476;53.614;10.048;2022-07-29T00:48:08;1.70;;;0.70;;
60653;SDS011;46476;53.614;10.048;2022-07-29T00:50:33;1.60;;;0.77;;
60653;SDS011;46476;53.614;10.048;2022-07-29T00:53:00;1.33;;;0.77;;
60653;SDS011;46476;53.614;10.048;2022-07-29T00:55:26;4.00;;;0.95;;
60653;SDS011;46476;53.614;10.048;2022-07-29T00:57:52;2.72;;;1.05;;
60653;SDS011;46476;53.614;10.048;2022-07-29T01:00:21;3.35;;;0.95;;
60653;SDS011;46476;53.614;10.048;2022-07-29T01:02:48;2.42;;;0.88;;
60653;SDS011;46476;53.614;10.048;2022-07-29T01:05:14;1.85;;;0.90;;
60653;SDS011;46476;53.614;10.048;2022-07-29T01:07:42;1.35;;;0.70;;
60653;SDS011;46476;53.614;10.048;2022-07-29T01:10:10;1.67;;;0.75;;
60653;SDS011;46476;53.614;10.048;2022-07-29T01:12:38;2.83;;;0.90;;
60653;SDS011;46476;53.614;10.048;2022-07-29T01:15:05;3.10;;;0.90;;
60653;SDS011;46476;53.614;10.048;2022-07-29T01:22:57;2.10;;;0.82;;
60653;SDS011;46476;53.614;10.048;2022-07-29T01:31:18;2.13;;;0.80;;
60653;SDS011;46476;53.614;10.048;2022-07-29T01:33:50;1.65;;;1.10;;
60653;SDS011;46476;53.614;10.048;2022-07-29T01:36:23;2.95;;;1.05;;
60653;SDS011;46476;53.614;10.048;2022-07-29T01:39:01;3.13;;;1.10;;
60653;SDS011;46476;53.614;10.048;2022-07-29T01:41:31;2.35;;;1.17;;
60653;SDS011;46476;53.614;10.048;2022-07-29T01:43:59;2.97;;;1.10;;
60653;SDS011;46476;53.614;10.048;2022-07-29T01:46:33;2.83;;;1.20;;
60653;SDS011;46476;53.614;10.048;2022-07-29T01:49:05;4.22;;;1.42;;
60653;SDS011;46476;53.614;10.048;2022-07-29T01:51:40;1.45;;;0.85;;
60653;SDS011;46476;53.614;10.048;2022-07-29T01:54:16;2.60;;;1.27;;
60653;SDS011;46476;53.614;10.048;2022-07-29T01:56:46;2.30;;;1.30;;
60653;SDS011;46476;53.614;10.048;2022-07-29T01:59:14;1.67;;;1.08;;
60653;SDS011;46476;53.614;10.048;2022-07-29T02:01:42;4.75;;;1.25;;
60653;SDS011;46476;53.614;10.048;2022-07-29T02:04:10;4.35;;;1.55;;
60653;SDS011;46476;53.614;10.048;2022-07-29T02:06:38;3.97;;;1.15;;
60653;SDS011;46476;53.614;10.048;2022-07-29T02:09:05;3.03;;;1.20;;
60653;SDS011;46476;53.614;10.048;2022-07-29T02:11:31;4.13;;;1.38;;
60653;SDS011;46476;53.614;10.048;2022-07-29T02:13:59;3.00;;;1.00;;
60653;SDS011;46476;53.614;10.048;2022-07-29T02:16:26;2.80;;;1.10;;
60653;SDS011;46476;53.614;10.048;2022-07-29T02:18:53;3.03;;;1.20;;
60653;SDS011;46476;53.614;10.048;2022-07-29T02:21:23;1.67;;;1.10;;
60653;SDS011;46476;53.614;10.048;2022-07-29T02:23:49;3.30;;;1.20;;
60653;SDS011;46476;53.614;10.048;2022-07-29T02:26:18;3.58;;;1.38;;
60653;SDS011;46476;53.614;10.048;2022-07-29T02:28:45;2.35;;;1.13;;
60653;SDS011;46476;53.614;10.048;2022-07-29T02:31:11;2.72;;;1.10;;
60653;SDS011;46476;53.614;10.048;2022-07-29T02:33:38;2.05;;;1.20;;
60653;SDS011;46476;53.614;10.048;2022-07-29T02:36:05;2.42;;;1.08;;
60653;SDS011;46476;53.614;10.048;2022-07-29T02:38:31;2.08;;;1.20;;
60653;SDS011;46476;53.614;10.048;2022-07-29T02:41:16;2.75;;;1.25;;
60653;SDS011;46476;53.614;10.048;2022-07-29T02:43:45;3.00;;;1.48;;
60653;SDS011;46476;53.614;10.048;2022-07-29T02:46:14;2.83;;;1.10;;
60653;SDS011;46476;53.614;10.048;2022-07-29T02:48:49;2.67;;;1.25;;
60653;SDS011;46476;53.614;10.048;2022-07-29T02:51:45;2.45;;;0.93;;
60653;SDS011;46476;53.614;10.048;2022-07-29T02:54:18;3.42;;;1.20;;
60653;SDS011;46476;53.614;10.048;2022-07-29T02:56:50;2.22;;;1.13;;
60653;SDS011;46476;53.614;10.048;2022-07-29T02:59:21;2.95;;;1.10;;
60653;SDS011;46476;53.614;10.048;2022-07-29T03:01:51;3.88;;;1.20;;
60653;SDS011;46476;53.614;10.048;2022-07-29T03:04:19;3.38;;;1.20;;
60653;SDS011;46476;53.614;10.048;2022-07-29T03:06:45;2.75;;;1.30;;
60653;SDS011;46476;53.614;10.048;2022-07-29T03:09:11;2.50;;;1.30;;
60653;SDS011;46476;53.614;10.048;2022-07-29T03:11:38;1.70;;;1.17;;
60653;SDS011;46476;53.614;10.048;2022-07-29T03:14:05;2.33;;;1.15;;
60653;SDS011;46476;53.614;10.048;2022-07-29T03:16:31;3.17;;;1.40;;
60653;SDS011;46476;53.614;10.048;2022-07-29T03:19:01;3.38;;;1.20;;
60653;SDS011;46476;53.614;10.048;2022-07-29T03:21:27;3.05;;;1.50;;
60653;SDS011;46476;53.614;10.048;2022-07-29T03:23:52;3.20;;;1.48;;
60653;SDS011;46476;53.614;10.048;2022-07-29T03:26:18;2.55;;;1.15;;
60653;SDS011;46476;53.614;10.048;2022-07-29T03:28:43;3.05;;;1.30;;
60653;SDS011;46476;53.614;10.048;2022-07-29T03:31:09;1.63;;;1.13;;
60653;SDS011;46476;53.614;10.048;2022-07-29T03:33:34;4.13;;;1.40;;
60653;SDS011;46476;53.614;10.048;2022-07-29T03:35:59;3.22;;;1.30;;
60653;SDS011;46476;53.614;10.048;2022-07-29T03:38:27;3.35;;;1.30;;
60653;SDS011;46476;53.614;10.048;2022-07-29T03:41:00;6.38;;;1.30;;
60653;SDS011;46476;53.614;10.048;2022-07-29T03:43:31;2.58;;;1.20;;
60653;SDS011;46476;53.614;10.048;2022-07-29T03:45:59;4.60;;;1.27;;
60653;SDS011;46476;53.614;10.048;2022-07-29T03:48:25;2.22;;;1.27;;
60653;SDS011;46476;53.614;10.048;2022-07-29T03:50:54;3.10;;;1.60;;
60653;SDS011;46476;53.614;10.048;2022-07-29T03:53:20;3.08;;;1.05;;
60653;SDS011;46476;53.614;10.048;2022-07-29T03:55:47;3.40;;;1.40;;
60653;SDS011;46476;53.614;10.048;2022-07-29T03:58:16;4.47;;;2.10;;
60653;SDS011;46476;53.614;10.048;2022-07-29T04:00:43;5.13;;;1.35;;
60653;SDS011;46476;53.614;10.048;2022-07-29T04:03:09;2.60;;;1.40;;
60653;SDS011;46476;53.614;10.048;2022-07-29T04:05:35;2.22;;;1.25;;
60653;SDS011;46476;53.614;10.048;2022-07-29T04:08:00;3.00;;;1.38;;
60653;SDS011;46476;53.614;10.048;2022-07-29T04:10:26;2.97;;;1.30;;
60653;SDS011;46476;53.614;10.048;2022-07-29T04:12:51;6.75;;;1.20;;
60653;SDS011;46476;53.614;10.048;2022-07-29T04:15:17;5.43;;;1.55;;
60653;SDS011;46476;53.614;10.048;2022-07-29T04:17:43;4.18;;;1.45;;
60653;SDS011;46476;53.614;10.048;2022-07-29T04:20:08;2.75;;;1.13;;
60653;SDS011;46476;53.614;10.048;2022-07-29T04:22:34;2.67;;;1.23;;
60653;SDS011;46476;53.614;10.048;2022-07-29T04:24:59;3.00;;;1.38;;
60653;SDS011;46476;53.614;10.048;2022-07-29T04:27:25;3.00;;;1.48;;
60653;SDS011;46476;53.614;10.048;2022-07-29T04:29:50;1.38;;;1.10;;
60653;SDS011;46476;53.614;10.048;2022-07-29T04:32:16;3.00;;;1.33;;
60653;SDS011;46476;53.614;10.048;2022-07-29T04:34:41;2.65;;;1.40;;
60653;SDS011;46476;53.614;10.048;2022-07-29T04:37:06;1.73;;;1.08;;
60653;SDS011;46476;53.614;10.048;2022-07-29T04:39:32;2.67;;;1.50;;
60653;SDS011;46476;53.614;10.048;2022-07-29T04:41:57;3.30;;;1.40;;
60653;SDS011;46476;53.614;10.048;2022-07-29T04:44:22;3.00;;;1.30;;
60653;SDS011;46476;53.614;10.048;2022-07-29T04:46:48;3.05;;;1.45;;
60653;SDS011;46476;53.614;10.048;2022-07-29T04:49:13;2.78;;;1.30;;
60653;SDS011;46476;53.614;10.048;2022-07-29T04:51:38;1.75;;;1.13;;
60653;SDS011;46476;53.614;10.048;2022-07-29T04:54:04;2.95;;;1.70;;
60653;SDS011;46476;53.614;10.048;2022-07-29T04:56:29;3.33;;;1.40;;
60653;SDS011;46476;53.614;10.048;2022-07-29T04:58:54;3.38;;;1.70;;
60653;SDS011;46476;53.614;10.048;2022-07-29T05:01:20;5.47;;;1.60;;
60653;SDS011;46476;53.614;10.048;2022-07-29T05:03:45;5.00;;;1.70;;
60653;SDS011;46476;53.614;10.048;2022-07-29T05:06:11;3.75;;;1.48;;
60653;SDS011;46476;53.614;10.048;2022-07-29T05:08:36;5.95;;;1.80;;
60653;SDS011;46476;53.614;10.048;2022-07-29T05:11:02;4.28;;;1.20;;
60653;SDS011;46476;53.614;10.048;2022-07-29T05:13:29;2.83;;;1.50;;
60653;SDS011;46476;53.614;10.048;2022-07-29T05:15:54;2.50;;;1.45;;
60653;SDS011;46476;53.614;10.048;2022-07-29T05:18:20;3.20;;;1.50;;
60653;SDS011;46476;53.614;10.048;2022-07-29T05:20:45;2.53;;;1.50;;
60653;SDS011;46476;53.614;10.048;2022-07-29T05:23:11;3.15;;;1.42;;
60653;SDS011;46476;53.614;10.048;2022-07-29T05:25:38;3.38;;;1.27;;
60653;SDS011;46476;53.614;10.048;2022-07-29T05:28:03;3.47;;;1.33;;
60653;SDS011;46476;53.614;10.048;2022-07-29T05:30:28;3.05;;;1.40;;
60653;SDS011;46476;53.614;10.048;2022-07-29T05:32:54;4.40;;;1.50;;
60653;SDS011;46476;53.614;10.048;2022-07-29T05:35:19;2.38;;;1.30;;
60653;SDS011;46476;53.614;10.048;2022-07-29T05:37:45;3.15;;;1.30;;
60653;SDS011;46476;53.614;10.048;2022-07-29T05:40:10;3.58;;;1.33;;
60653;SDS011;46476;53.614;10.048;2022-07-29T05:42:35;3.35;;;1.05;;
60653;SDS011;46476;53.614;10.048;2022-07-29T05:45:01;3.53;;;1.60;;
60653;SDS011;46476;53.614;10.048;2022-07-29T05:47:27;3.42;;;1.20;;
60653;SDS011;46476;53.614;10.048;2022-07-29T05:49:53;2.30;;;1.38;;
60653;SDS011;46476;53.614;10.048;2022-07-29T05:52:18;2.40;;;1.08;;
60653;SDS011;46476;53.614;10.048;2022-07-29T05:54:45;3.47;;;1.40;;
60653;SDS011;46476;53.614;10.048;2022-07-29T05:57:17;2.53;;;1.40;;
60653;SDS011;46476;53.614;10.048;2022-07-29T05:59:43;2.38;;;1.30;;
60653;SDS011;46476;53.614;10.048;2022-07-29T06:02:09;5.32;;;1.60;;
60653;SDS011;46476;53.614;10.048;2022-07-29T06:04:34;3.58;;;1.45;;
60653;SDS011;46476;53.614;10.048;2022-07-29T06:06:59;2.50;;;1.27;;
60653;SDS011;46476;53.614;10.048;2022-07-29T06:09:25;4.25;;;1.30;;
60653;SDS011;46476;53.614;10.048;2022-07-29T06:11:51;4.03;;;1.30;;
60653;SDS011;46476;53.614;10.048;2022-07-29T06:14:17;3.53;;;1.27;;
60653;SDS011;46476;53.614;10.048;2022-07-29T06:16:42;3.95;;;1.35;;
60653;SDS011;46476;53.614;10.048;2022-07-29T06:19:07;6.22;;;1.40;;
60653;SDS011;46476;53.614;10.048;2022-07-29T06:21:33;1.20;;;0.93;;
60653;SDS011;46476;53.614;10.048;2022-07-29T06:23:58;2.45;;;1.30;;
60653;SDS011;46476;53.614;10.048;2022-07-29T06:26:24;2.72;;;1.25;;
60653;SDS011;46476;53.614;10.048;2022-07-29T06:28:49;2.33;;;1.17;;
60653;SDS011;46476;53.614;10.048;2022-07-29T06:31:14;2.80;;;1.30;;
60653;SDS011;46476;53.614;10.048;2022-07-29T06:33:40;2.15;;;1.20;;
60653;SDS011;46476;53.614;10.048;2022-07-29T06:36:05;2.30;;;1.30;;
60653;SDS011;46476;53.614;10.048;2022-07-29T06:38:31;3.25;;;1.17;;
60653;SDS011;46476;53.614;10.048;2022-07-29T06:40:58;2.60;;;1.50;;
60653;SDS011;46476;53.614;10.048;2022-07-29T06:43:37;2.45;;;1.30;;
60653;SDS011;46476;53.614;10.048;2022-07-29T06:46:05;4.72;;;1.17;;
60653;SDS011;46476;53.614;10.048;2022-07-29T06:48:38;4.65;;;1.60;;
60653;SDS011;46476;53.614;10.048;2022-07-29T06:51:05;4.28;;;1.40;;
60653;SDS011;46476;53.614;10.048;2022-07-29T06:53:31;2.97;;;1.45;;
60653;SDS011;46476;53.614;10.048;2022-07-29T06:55:58;3.17;;;1.40;;
60653;SDS011;46476;53.614;10.048;2022-07-29T06:58:25;4.45;;;1.38;;
60653;SDS011;46476;53.614;10.048;2022-07-29T07:00:51;2.72;;;1.42;;
60653;SDS011;46476;53.614;10.048;2022-07-29T07:03:17;3.17;;;1.20;;
60653;SDS011;46476;53.614;10.048;2022-07-29T07:05:42;3.03;;;1.23;;
60653;SDS011;46476;53.614;10.048;2022-07-29T07:08:09;3.10;;;1.15;;
60653;SDS011;46476;53.614;10.048;2022-07-29T07:10:35;2.33;;;1.17;;
60653;SDS011;46476;53.614;10.048;2022-07-29T07:13:00;1.90;;;1.20;;
60653;SDS011;46476;53.614;10.048;2022-07-29T07:15:26;3.30;;;1.52;;
60653;SDS011;46476;53.614;10.048;2022-07-29T07:17:52;4.78;;;1.17;;
60653;SDS011;46476;53.614;10.048;2022-07-29T07:20:18;3.03;;;1.20;;
60653;SDS011;46476;53.614;10.048;2022-07-29T07:22:43;2.60;;;1.25;;
60653;SDS011;46476;53.614;10.048;2022-07-29T07:25:09;2.35;;;1.10;;
60653;SDS011;46476;53.614;10.048;2022-07-29T07:27:35;3.97;;;1.50;;
60653;SDS011;46476;53.614;10.048;2022-07-29T07:30:02;3.83;;;1.25;;
60653;SDS011;46476;53.614;10.048;2022-07-29T07:32:30;3.83;;;1.40;;
60653;SDS011;46476;53.614;10.048;2022-07-29T07:34:56;1.80;;;1.13;;
60653;SDS011;46476;53.614;10.048;2022-07-29T07:37:21;2.85;;;1.60;;
60653;SDS011;46476;53.614;10.048;2022-07-29T07:39:46;2.67;;;1.13;;
60653;SDS011;46476;53.614;10.048;2022-07-29T07:42:11;2.83;;;1.65;;
60653;SDS011;46476;53.614;10.048;2022-07-29T07:44:38;2.58;;;1.33;;
60653;SDS011;46476;53.614;10.048;2022-07-29T07:47:04;4.22;;;1.30;;
60653;SDS011;46476;53.614;10.048;2022-07-29T07:49:30;2.25;;;1.10;;
60653;SDS011;46476;53.614;10.048;2022-07-29T07:51:55;3.75;;;1.30;;
60653;SDS011;46476;53.614;10.048;2022-07-29T07:54:21;4.35;;;1.67;;
60653;SDS011;46476;53.614;10.048;2022-07-29T07:56:46;2.58;;;1.27;;
60653;SDS011;46476;53.614;10.048;2022-07-29T07:59:15;4.25;;;1.33;;
60653;SDS011;46476;53.614;10.048;2022-07-29T08:01:41;2.33;;;1.30;;
60653;SDS011;46476;53.614;10.048;2022-07-29T08:04:07;3.40;;;1.20;;
60653;SDS011;46476;53.614;10.048;2022-07-29T08:06:33;2.17;;;1.00;;
60653;SDS011;46476;53.614;10.048;2022-07-29T08:08:59;5.18;;;1.42;;
60653;SDS011;46476;53.614;10.048;2022-07-29T08:11:25;8.15;;;1.25;;
60653;SDS011;46476;53.614;10.048;2022-07-29T08:13:50;3.70;;;1.10;;
60653;SDS011;46476;53.614;10.048;2022-07-29T08:16:15;3.20;;;1.10;;
60653;SDS011;46476;53.614;10.048;2022-07-29T08:18:41;5.22;;;1.30;;
60653;SDS011;46476;53.614;10.048;2022-07-29T08:21:09;4.47;;;1.23;;
60653;SDS011;46476;53.614;10.048;2022-07-29T08:23:34;2.58;;;0.93;;
60653;SDS011;46476;53.614;10.048;2022-07-29T08:26:03;2.60;;;1.10;;
60653;SDS011;46476;53.614;10.048;2022-07-29T08:28:30;3.03;;;1.10;;
60653;SDS011;46476;53.614;10.048;2022-07-29T08:30:55;2.47;;;1.00;;
60653;SDS011;46476;53.614;10.048;2022-07-29T08:33:21;1.40;;;0.82;;
60653;SDS011;46476;53.614;10.048;2022-07-29T08:35:46;3.40;;;1.25;;
60653;SDS011;46476;53.614;10.048;2022-07-29T08:38:11;1.63;;;0.90;;
60653;SDS011;46476;53.614;10.048;2022-07-29T08:40:37;4.32;;;1.08;;
60653;SDS011;46476;53.614;10.048;2022-07-29T08:43:06;2.50;;;1.20;;
60653;SDS011;46476;53.614;10.048;2022-07-29T08:45:41;3.10;;;1.13;;
60653;SDS011;46476;53.614;10.048;2022-07-29T08:48:07;1.33;;;0.82;;
60653;SDS011;46476;53.614;10.048;2022-07-29T08:50:33;2.30;;;1.05;;
60653;SDS011;46476;53.614;10.048;2022-07-29T08:53:00;2.40;;;0.85;;
60653;SDS011;46476;53.614;10.048;2022-07-29T08:55:26;3.72;;;1.17;;
60653;SDS011;46476;53.614;10.048;2022-07-29T08:57:52;2.72;;;1.08;;
60653;SDS011;46476;53.614;10.048;2022-07-29T09:00:18;2.60;;;1.00;;
60653;SDS011;46476;53.614;10.048;2022-07-29T09:02:45;2.83;;;1.00;;
60653;SDS011;46476;53.614;10.048;2022-07-29T09:07:42;0.98;;;0.88;;
60653;SDS011;46476;53.614;10.048;2022-07-29T09:10:09;2.78;;;1.10;;
60653;SDS011;46476;53.614;10.048;2022-07-29T09:12:35;2.65;;;1.08;;
60653;SDS011;46476;53.614;10.048;2022-07-29T09:15:00;1.83;;;0.98;;
60653;SDS011;46476;53.614;10.048;2022-07-29T09:17:45;4.00;;;1.20;;
60653;SDS011;46476;53.614;10.048;2022-07-29T09:20:19;1.92;;;1.05;;
60653;SDS011;46476;53.614;10.048;2022-07-29T09:22:47;1.52;;;0.80;;
60653;SDS011;46476;53.614;10.048;2022-07-29T09:25:14;2.97;;;1.20;;
60653;SDS011;46476;53.614;10.048;2022-07-29T09:30:30;2.80;;;0.98;;
60653;SDS011;46476;53.614;10.048;2022-07-29T09:32:56;1.48;;;0.85;;
60653;SDS011;46476;53.614;10.048;2022-07-29T09:35:24;1.30;;;0.88;;
60653;SDS011;46476;53.614;10.048;2022-07-29T09:37:50;2.75;;;1.00;;
60653;SDS011;46476;53.614;10.048;2022-07-29T09:40:17;2.80;;;0.90;;
60653;SDS011;46476;53.614;10.048;2022-07-29T09:42:44;2.08;;;1.05;;
60653;SDS011;46476;53.614;10.048;2022-07-29T09:45:10;2.95;;;0.98;;
60653;SDS011;46476;53.614;10.048;2022-07-29T09:47:43;3.08;;;1.30;;
60653;SDS011;46476;53.614;10.048;2022-07-29T09:50:13;4.15;;;1.75;;
60653;SDS011;46476;53.614;10.048;2022-07-29T09:52:58;3.15;;;1.55;;
60653;SDS011;46476;53.614;10.048;2022-07-29T09:55:23;2.45;;;1.23;;
60653;SDS011;46476;53.614;10.048;2022-07-29T09:57:49;3.08;;;1.20;;
60653;SDS011;46476;53.614;10.048;2022-07-29T10:00:18;1.88;;;1.20;;
60653;SDS011;46476;53.614;10.048;2022-07-29T10:02:44;3.03;;;1.10;;
60653;SDS011;46476;53.614;10.048;2022-07-29T10:05:24;2.65;;;1.10;;
60653;SDS011;46476;53.614;10.048;2022-07-29T10:07:57;2.47;;;1.05;;
60653;SDS011;46476;53.614;10.048;2022-07-29T10:12:59;4.05;;;1.02;;
60653;SDS011;46476;53.614;10.048;2022-07-29T10:15:27;2.65;;;1.10;;
60653;SDS011;46476;53.614;10.048;2022-07-29T10:17:57;1.47;;;0.83;;
60653;SDS011;46476;53.614;10.048;2022-07-29T10:20:24;2.67;;;1.02;;
60653;SDS011;46476;53.614;10.048;2022-07-29T10:22:50;4.07;;;1.20;;
60653;SDS011;46476;53.614;10.048;2022-07-29T10:25:16;3.17;;;0.93;;
60653;SDS011;46476;53.614;10.048;2022-07-29T10:27:43;2.55;;;0.90;;
60653;SDS011;46476;53.614;10.048;2022-07-29T10:30:10;3.30;;;1.02;;
60653;SDS011;46476;53.614;10.048;2022-07-29T10:44:15;4.15;;;0.70;;
60653;SDS011;46476;53.614;10.048;2022-07-29T10:46:43;4.05;;;1.10;;
60653;SDS011;46476;53.614;10.048;2022-07-29T10:49:18;2.00;;;0.90;;
60653;SDS011;46476;53.614;10.048;2022-07-29T10:51:55;6.13;;;1.17;;
60653;SDS011;46476;53.614;10.048;2022-07-29T10:57:10;1.08;;;0.80;;
60653;SDS011;46476;53.614;10.048;2022-07-29T11:05:07;2.63;;;0.88;;
60653;SDS011;46476;53.614;10.048;2022-07-29T11:07:33;2.22;;;0.90;;
60653;SDS011;46476;53.614;10.048;2022-07-29T11:15:06;2.55;;;0.82;;
60653;SDS011;46476;53.614;10.048;2022-07-29T11:31:34;1.42;;;0.63;;
60653;SDS011;46476;53.614;10.048;2022-07-29T11:39:38;3.65;;;0.80;;
60653;SDS011;46476;53.614;10.048;2022-07-29T11:44:56;1.13;;;0.70;;
60653;SDS011;46476;53.614;10.048;2022-07-29T11:47:33;2.45;;;0.80;;
60653;SDS011;46476;53.614;10.048;2022-07-29T11:50:01;1.58;;;0.70;;
60653;SDS011;46476;53.614;10.048;2022-07-29T11:52:35;1.52;;;0.80;;
60653;SDS011;46476;53.614;10.048;2022-07-29T11:55:15;2.50;;;0.75;;
60653;SDS011;46476;53.614;10.048;2022-07-29T11:57:52;1.40;;;0.60;;
60653;SDS011;46476;53.614;10.048;2022-07-29T12:00:38;1.50;;;0.65;;
60653;SDS011;46476;53.614;10.048;2022-07-29T12:03:06;1.63;;;0.82;;
60653;SDS011;46476;53.614;10.048;2022-07-29T12:05:37;1.42;;;0.70;;
60653;SDS011;46476;53.614;10.048;2022-07-29T12:08:10;1.15;;;0.70;;
60653;SDS011;46476;53.614;10.048;2022-07-29T12:10:41;1.83;;;0.80;;
60653;SDS011;46476;53.614;10.048;2022-07-29T12:13:07;2.00;;;0.80;;
60653;SDS011;46476;53.614;10.048;2022-07-29T12:15:33;4.10;;;1.10;;
60653;SDS011;46476;53.614;10.048;2022-07-29T12:18:08;2.53;;;0.95;;
60653;SDS011;46476;53.614;10.048;2022-07-29T12:20:34;2.50;;;0.98;;
60653;SDS011;46476;53.614;10.048;2022-07-29T12:23:04;1.45;;;0.88;;
60653;SDS011;46476;53.614;10.048;2022-07-29T12:25:32;1.48;;;0.90;;
60653;SDS011;46476;53.614;10.048;2022-07-29T12:27:59;2.33;;;0.93;;
60653;SDS011;46476;53.614;10.048;2022-07-29T12:30:43;1.55;;;0.80;;
60653;SDS011;46476;53.614;10.048;2022-07-29T12:35:42;3.83;;;0.77;;
60653;SDS011;46476;53.614;10.048;2022-07-29T12:38:10;3.20;;;0.80;;
60653;SDS011;46476;53.614;10.048;2022-07-29T12:40:37;2.03;;;0.88;;
60653;SDS011;46476;53.614;10.048;2022-07-29T12:43:06;1.25;;;0.75;;
60653;SDS011;46476;53.614;10.048;2022-07-29T12:45:37;1.40;;;0.70;;
60653;SDS011;46476;53.614;10.048;2022-07-29T12:48:03;2.25;;;0.85;;
60653;SDS011;46476;53.614;10.048;2022-07-29T12:50:30;1.95;;;0.70;;
60653;SDS011;46476;53.614;10.048;2022-07-29T12:53:07;3.67;;;0.80;;
60653;SDS011;46476;53.614;10.048;2022-07-29T12:55:41;2.97;;;1.10;;
60653;SDS011;46476;53.614;10.048;2022-07-29T12:58:08;5.03;;;1.00;;
60653;SDS011;46476;53.614;10.048;2022-07-29T13:00:34;2.28;;;0.90;;
60653;SDS011;46476;53.614;10.048;2022-07-29T13:03:11;3.80;;;1.10;;
60653;SDS011;46476;53.614;10.048;2022-07-29T13:05:40;3.05;;;1.00;;
60653;SDS011;46476;53.614;10.048;2022-07-29T13:08:11;3.20;;;1.00;;
60653;SDS011;46476;53.614;10.048;2022-07-29T13:10:37;3.00;;;1.00;;
60653;SDS011;46476;53.614;10.048;2022-07-29T13:15:35;1.83;;;1.10;;
60653;SDS011;46476;53.614;10.048;2022-07-29T13:18:04;3.08;;;1.15;;
60653;SDS011;46476;53.614;10.048;2022-07-29T13:20:50;1.77;;;1.10;;
60653;SDS011;46476;53.614;10.048;2022-07-29T13:23:15;2.95;;;1.15;;
60653;SDS011;46476;53.614;10.048;2022-07-29T13:25:41;1.95;;;1.13;;
60653;SDS011;46476;53.614;10.048;2022-07-29T13:28:06;4.60;;;1.05;;
60653;SDS011;46476;53.614;10.048;2022-07-29T13:30:31;3.50;;;1.10;;
60653;SDS011;46476;53.614;10.048;2022-07-29T13:32:57;2.22;;;1.00;;
60653;SDS011;46476;53.614;10.048;2022-07-29T13:35:22;5.05;;;1.10;;
60653;SDS011;46476;53.614;10.048;2022-07-29T13:37:47;3.33;;;0.95;;
60653;SDS011;46476;53.614;10.048;2022-07-29T13:40:13;2.65;;;1.10;;
60653;SDS011;46476;53.614;10.048;2022-07-29T13:42:39;2.15;;;1.00;;
60653;SDS011;46476;53.614;10.048;2022-07-29T13:45:05;2.95;;;1.02;;
60653;SDS011;46476;53.614;10.048;2022-07-29T13:47:31;2.55;;;0.82;;
60653;SDS011;46476;53.614;10.048;2022-07-29T13:49:56;2.25;;;0.93;;
60653;SDS011;46476;53.614;10.048;2022-07-29T13:52:22;2.95;;;1.20;;
60653;SDS011;46476;53.614;10.048;2022-07-29T13:54:47;3.80;;;1.30;;
60653;SDS011;46476;53.614;10.048;2022-07-29T13:57:13;7.30;;;1.00;;
60653;SDS011;46476;53.614;10.048;2022-07-29T13:59:39;2.58;;;0.73;;
60653;SDS011;46476;53.614;10.048;2022-07-29T14:02:07;2.65;;;0.90;;
60653;SDS011;46476;53.614;10.048;2022-07-29T14:04:33;3.47;;;1.15;;
60653;SDS011;46476;53.614;10.048;2022-07-29T14:06:58;1.70;;;0.95;;
60653;SDS011;46476;53.614;10.048;2022-07-29T14:09:23;2.38;;;1.30;;
60653;SDS011;46476;53.614;10.048;2022-07-29T14:11:49;3.78;;;1.00;;
60653;SDS011;46476;53.614;10.048;2022-07-29T14:14:16;2.67;;;1.10;;
60653;SDS011;46476;53.614;10.048;2022-07-29T14:16:41;4.15;;;1.30;;
60653;SDS011;46476;53.614;10.048;2022-07-29T14:19:06;3.63;;;1.00;;
60653;SDS011;46476;53.614;10.048;2022-07-29T14:21:32;1.33;;;0.90;;
60653;SDS011;46476;53.614;10.048;2022-07-29T14:23:57;6.15;;;1.50;;
60653;SDS011;46476;53.614;10.048;2022-07-29T14:26:23;1.77;;;1.27;;
60653;SDS011;46476;53.614;10.048;2022-07-29T14:28:48;4.30;;;1.17;;
60653;SDS011;46476;53.614;10.048;2022-07-29T14:31:14;1.63;;;1.33;;
60653;SDS011;46476;53.614;10.048;2022-07-29T14:33:40;3.90;;;1.27;;
60653;SDS011;46476;53.614;10.048;2022-07-29T14:36:05;3.50;;;1.60;;
60653;SDS011;46476;53.614;10.048;2022-07-29T14:38:31;3.38;;;1.30;;
60653;SDS011;46476;53.614;10.048;2022-07-29T14:40:56;2.40;;;1.20;;
60653;SDS011;46476;53.614;10.048;2022-07-29T14:43:21;3.90;;;1.48;;
60653;SDS011;46476;53.614;10.048;2022-07-29T14:45:47;2.63;;;1.02;;
60653;SDS011;46476;53.614;10.048;2022-07-29T14:48:12;2.95;;;0.90;;
60653;SDS011;46476;53.614;10.048;2022-07-29T14:50:37;4.90;;;1.05;;
60653;SDS011;46476;53.614;10.048;2022-07-29T14:53:02;3.08;;;1.10;;
60653;SDS011;46476;53.614;10.048;2022-07-29T14:55:28;3.45;;;1.10;;
60653;SDS011;46476;53.614;10.048;2022-07-29T14:57:53;4.32;;;1.00;;
60653;SDS011;46476;53.614;10.048;2022-07-29T15:00:19;4.80;;;1.38;;
60653;SDS011;46476;53.614;10.048;2022-07-29T15:02:45;1.23;;;0.93;;
60653;SDS011;46476;53.614;10.048;2022-07-29T15:05:11;2.97;;;1.33;;
60653;SDS011;46476;53.614;10.048;2022-07-29T15:07:37;2.08;;;1.20;;
60653;SDS011;46476;53.614;10.048;2022-07-29T15:10:02;4.07;;;1.33;;
60653;SDS011;46476;53.614;10.048;2022-07-29T15:12:29;4.72;;;1.15;;
60653;SDS011;46476;53.614;10.048;2022-07-29T15:14:55;2.97;;;1.10;;
60653;SDS011;46476;53.614;10.048;2022-07-29T15:17:20;1.95;;;1.05;;
60653;SDS011;46476;53.614;10.048;2022-07-29T15:19:46;3.42;;;1.17;;
60653;SDS011;46476;53.614;10.048;2022-07-29T15:22:11;1.95;;;0.90;;
60653;SDS011;46476;53.614;10.048;2022-07-29T15:24:36;2.65;;;1.20;;
60653;SDS011;46476;53.614;10.048;2022-07-29T15:27:02;2.53;;;0.93;;
60653;SDS011;46476;53.614;10.048;2022-07-29T15:29:27;2.60;;;0.90;;
60653;SDS011;46476;53.614;10.048;2022-07-29T15:31:52;3.20;;;0.98;;
60653;SDS011;46476;53.614;10.048;2022-07-29T15:34:18;2.05;;;0.93;;
60653;SDS011;46476;53.614;10.048;2022-07-29T15:36:45;2.03;;;0.95;;
60653;SDS011;46476;53.614;10.048;2022-07-29T15:39:10;2.33;;;1.08;;
60653;SDS011;46476;53.614;10.048;2022-07-29T15:41:36;3.42;;;1.10;;
60653;SDS011;46476;53.614;10.048;2022-07-29T15:44:01;2.20;;;0.80;;
60653;SDS011;46476;53.614;10.048;2022-07-29T15:46:26;3.45;;;0.80;;